Time;durP1;ratioP1;P1;durP2;ratioP2;P2;SDS_P1;SDS_P2;PMS_P1;PMS_P2;Temp;Humidity;BMP_temperature;BMP_pressure;BME280_temperature;BME280_humidity;BME280_pressure;Samples;Min_cycle;Max_cycle;Signal;HPM_P1;HPM_P2
2022/07/27 00:01:21;;;;;;;18.35;8.95;;;;;;;23.72;43.83;93555.00;5124564;28;20022;-84
2022/07/27 00:03:46;;;;;;;13.48;9.60;;;;;;;23.69;44.10;93556.59;5124481;28;20019;-84
2022/07/27 00:06:12;;;;;;;12.02;9.35;;;;;;;23.63;44.55;93539.16;5124407;28;20023;-85
2022/07/27 00:08:38;;;;;;;10.88;8.88;;;;;;;23.59;45.00;93535.69;5123218;28;20195;-85
2022/07/27 00:11:04;;;;;;;15.80;8.48;;;;;;;23.51;44.98;93545.09;5124595;28;20038;-85
2022/07/27 00:13:30;;;;;;;14.98;9.07;;;;;;;23.47;45.20;93555.22;5124169;28;20019;-85
2022/07/27 00:15:55;;;;;;;17.50;8.80;;;;;;;23.41;45.50;93552.19;5124229;27;20377;-85
2022/07/27 00:18:21;;;;;;;13.90;8.82;;;;;;;23.37;45.25;93552.22;5122692;28;20051;-85
2022/07/27 00:20:46;;;;;;;12.82;8.15;;;;;;;23.32;45.55;93549.91;5124115;28;20027;-85
2022/07/27 00:23:12;;;;;;;11.13;8.50;;;;;;;23.24;46.02;93548.44;5122975;28;20020;-84
2022/07/27 00:25:37;;;;;;;10.25;8.30;;;;;;;23.16;46.11;93547.72;5124156;28;20016;-84
2022/07/27 00:28:03;;;;;;;12.30;9.05;;;;;;;23.12;46.04;93559.78;5123954;28;20371;-84
2022/07/27 00:30:29;;;;;;;10.38;8.52;;;;;;;23.05;45.32;93557.13;5123910;28;20094;-85
2022/07/27 00:32:55;;;;;;;11.48;7.93;;;;;;;23.01;44.19;93565.28;5122664;28;20026;-84
2022/07/27 00:35:21;;;;;;;12.40;7.85;;;;;;;23.02;44.08;93566.88;5122560;27;20039;-84
2022/07/27 00:37:47;;;;;;;13.27;8.15;;;;;;;22.99;44.38;93575.78;5123912;28;20027;-84
2022/07/27 00:40:12;;;;;;;16.70;9.25;;;;;;;22.95;44.58;93583.94;5123795;28;20026;-84
2022/07/27 00:42:38;;;;;;;10.70;8.70;;;;;;;22.94;44.59;93584.34;5123668;28;20369;-87
2022/07/27 00:45:04;;;;;;;14.63;8.65;;;;;;;22.85;44.72;93587.50;5122889;28;20016;-87
2022/07/27 00:47:31;;;;;;;12.18;9.05;;;;;;;22.83;44.91;93587.13;5123586;28;20377;-87
2022/07/27 00:49:57;;;;;;;12.18;8.88;;;;;;;22.80;44.86;93579.78;5123611;28;20148;-87
2022/07/27 00:52:23;;;;;;;10.73;8.35;;;;;;;22.80;45.55;93587.94;5123525;28;20023;-83
2022/07/27 00:54:50;;;;;;;14.50;10.27;;;;;;;22.78;45.12;93590.28;5123434;28;20078;-83
2022/07/27 00:57:15;;;;;;;13.93;8.82;;;;;;;22.77;45.04;93586.00;5123474;28;20035;-83
2022/07/27 00:59:41;;;;;;;11.25;8.77;;;;;;;22.79;44.96;93589.09;5123532;28;20073;-83
2022/07/27 01:02:08;;;;;;;10.65;9.05;;;;;;;22.80;46.13;93591.44;5123319;28;20034;-83
2022/07/27 01:04:34;;;;;;;10.70;8.25;;;;;;;22.79;46.40;93587.16;5123316;28;20028;-83
2022/07/27 01:07:02;;;;;;;11.50;8.75;;;;;;;22.73;46.64;93596.88;5123250;28;20031;-83
2022/07/27 01:12:18;;;;;;;13.65;8.98;;;;;;;22.68;46.92;93572.88;5123269;28;20103;-83
2022/07/27 01:14:43;;;;;;;15.43;8.25;;;;;;;22.70;47.20;93575.97;5123186;28;20007;-83
2022/07/27 01:17:09;;;;;;;12.25;8.60;;;;;;;22.67;47.30;93573.25;5123090;28;20032;-83
2022/07/27 01:19:35;;;;;;;16.20;9.35;;;;;;;22.67;47.27;93571.31;5123481;28;20263;-83
2022/07/27 01:22:02;;;;;;;12.70;9.00;;;;;;;22.64;46.87;93572.88;5123122;28;20248;-83
2022/07/27 01:24:27;;;;;;;14.52;9.63;;;;;;;22.61;47.40;93573.69;5122980;28;20032;-83
2022/07/27 01:26:53;;;;;;;12.95;8.57;;;;;;;22.54;47.72;93584.56;5122903;28;20088;-83
2022/07/27 01:29:18;;;;;;;10.50;8.63;;;;;;;22.54;47.80;93589.25;5122374;28;20020;-83
2022/07/27 01:31:44;;;;;;;15.43;8.88;;;;;;;22.54;47.92;93583.81;5122851;28;20020;-83
2022/07/27 01:34:09;;;;;;;14.85;8.60;;;;;;;22.47;47.71;93592.78;5123158;28;20061;-83
2022/07/27 01:36:34;;;;;;;11.80;9.27;;;;;;;22.42;48.08;93595.88;5122994;28;20103;-83
2022/07/27 01:39:00;;;;;;;14.95;9.35;;;;;;;22.39;47.04;93596.69;5122848;28;20270;-83
2022/07/27 01:41:25;;;;;;;13.05;9.25;;;;;;;22.31;47.70;93592.44;5123061;28;20072;-85
2022/07/27 01:43:51;;;;;;;16.77;8.95;;;;;;;22.29;47.69;93595.56;5122785;28;20034;-84
2022/07/27 01:46:16;;;;;;;11.30;8.65;;;;;;;22.29;48.43;93600.19;5122833;28;20027;-84
2022/07/27 01:48:42;;;;;;;11.88;9.40;;;;;;;22.27;48.09;93603.31;5122830;28;20012;-82
2022/07/27 01:51:07;;;;;;;17.40;9.73;;;;;;;22.24;47.68;93591.28;5122955;28;20030;-82
2022/07/27 01:53:32;;;;;;;13.52;8.73;;;;;;;22.26;48.18;93592.84;5122695;28;20015;-82
2022/07/27 01:55:58;;;;;;;15.52;9.40;;;;;;;22.26;48.51;93590.91;5122712;28;20032;-82
2022/07/27 01:58:23;;;;;;;13.07;8.73;;;;;;;22.23;48.99;93597.09;5122885;28;20046;-82
2022/07/27 02:00:49;;;;;;;12.05;9.52;;;;;;;22.19;48.25;93591.69;5122620;28;20237;-81
2022/07/27 02:03:14;;;;;;;12.18;9.15;;;;;;;22.17;48.21;93594.00;5122666;28;20015;-82
2022/07/27 02:05:40;;;;;;;12.65;9.57;;;;;;;22.06;48.54;93595.97;5122600;28;20024;-82
2022/07/27 02:08:06;;;;;;;15.15;9.32;;;;;;;22.05;48.70;93589.00;5122677;28;20035;-81
2022/07/27 02:10:32;;;;;;;12.23;9.50;;;;;;;22.05;47.69;93591.72;5122650;28;20047;-82
2022/07/27 02:12:58;;;;;;;13.13;9.43;;;;;;;22.06;47.80;93587.06;5121395;28;20102;-83
2022/07/27 02:15:25;;;;;;;17.30;9.73;;;;;;;22.06;49.17;93587.06;5122469;28;20072;-83
2022/07/27 02:17:52;;;;;;;11.63;8.63;;;;;;;22.07;47.79;93589.41;5122542;28;20052;-86
2022/07/27 02:20:22;;;;;;;17.55;9.07;;;;;;;22.06;47.39;93597.91;5121556;28;20068;-87
2022/07/27 02:22:49;;;;;;;14.38;9.20;;;;;;;22.03;47.70;93592.13;5122547;28;20026;-87
2022/07/27 02:25:16;;;;;;;13.75;9.13;;;;;;;21.99;48.99;93596.00;5122207;28;20028;-87
2022/07/27 02:27:45;;;;;;;14.48;9.98;;;;;;;21.97;49.79;93601.06;5122506;28;20306;-87
2022/07/27 02:30:12;;;;;;;15.23;9.88;;;;;;;21.89;50.11;93599.53;5122407;28;20020;-87
2022/07/27 02:32:39;;;;;;;16.48;10.82;;;;;;;21.82;50.78;93598.38;5122697;28;20015;-85
2022/07/27 02:35:05;;;;;;;22.15;10.15;;;;;;;21.79;49.88;93596.44;5122624;28;20321;-86
2022/07/27 02:37:31;;;;;;;13.57;9.63;;;;;;;21.78;49.56;93600.31;5120994;28;20031;-86
2022/07/27 02:39:56;;;;;;;14.45;9.50;;;;;;;21.80;48.04;93600.69;5122501;28;20024;-85
2022/07/27 02:42:21;;;;;;;14.10;7.90;;;;;;;21.85;46.70;93604.94;5126252;28;20095;-85
2022/07/27 02:44:47;;;;;;;16.67;8.35;;;;;;;21.91;46.54;93613.47;5124666;28;20023;-85
2022/07/27 02:47:12;;;;;;;16.77;9.02;;;;;;;21.92;47.17;93604.16;5126143;27;20042;-85
2022/07/27 02:50:08;;;;;;;14.27;8.55;;;;;;;21.96;47.18;93604.91;5126059;28;20016;-85
2022/07/27 02:52:34;;;;;;;15.90;8.52;;;;;;;21.94;47.69;93607.25;5124069;28;20080;-86
2022/07/27 02:55:00;;;;;;;17.23;9.90;;;;;;;21.95;47.67;93612.28;5124944;28;20027;-85
2022/07/27 02:57:25;;;;;;;13.25;9.35;;;;;;;21.99;47.71;93606.88;5125925;28;20027;-85
2022/07/27 02:59:50;;;;;;;13.10;8.40;;;;;;;22.05;47.81;93613.44;5125796;28;20023;-82
2022/07/27 03:02:16;;;;;;;16.98;8.63;;;;;;;22.04;47.64;93617.31;5125599;28;20019;-82
2022/07/27 03:04:41;;;;;;;15.75;7.85;;;;;;;22.05;47.34;93621.56;5125569;28;20188;-81
2022/07/27 03:07:08;;;;;;;13.30;8.15;;;;;;;22.06;46.44;93614.97;5125890;28;20020;-81
2022/07/27 03:09:33;;;;;;;15.77;8.65;;;;;;;22.07;45.87;93615.75;5125526;28;20087;-83
2022/07/27 03:11:59;;;;;;;12.02;7.97;;;;;;;22.08;46.16;93631.63;5125453;28;20027;-84
2022/07/27 03:14:25;;;;;;;12.98;8.23;;;;;;;22.12;45.98;93629.69;5125438;28;20016;-85
2022/07/27 03:16:50;;;;;;;11.10;7.13;;;;;;;22.15;46.31;93623.50;5125336;27;20051;-84
2022/07/27 03:19:15;;;;;;;13.68;8.10;;;;;;;22.13;46.79;93631.25;5125434;28;20274;-85
2022/07/27 03:21:41;;;;;;;14.23;7.53;;;;;;;22.14;46.83;93629.31;5125452;27;20264;-85
2022/07/27 03:24:06;;;;;;;11.43;8.13;;;;;;;22.16;46.47;93644.03;5125286;28;20020;-86
2022/07/27 03:26:32;;;;;;;12.57;8.18;;;;;;;22.19;47.68;93637.06;5124011;28;20042;-85
2022/07/27 03:28:58;;;;;;;14.60;8.13;;;;;;;22.18;47.39;93633.53;5125175;28;20068;-86
2022/07/27 03:31:23;;;;;;;15.48;8.35;;;;;;;22.19;46.35;93629.69;5125119;28;20030;-85
2022/07/27 03:33:49;;;;;;;19.05;8.60;;;;;;;22.22;47.23;93631.59;5124047;28;20039;-85
2022/07/27 03:36:14;;;;;;;12.65;7.13;;;;;;;22.19;47.87;93632.41;5141045;27;20024;-85
2022/07/27 03:38:40;;;;;;;12.90;7.97;;;;;;;22.15;47.40;93634.34;5125087;28;20266;-86
2022/07/27 03:41:05;;;;;;;13.15;7.95;;;;;;;22.19;47.51;93629.69;5124880;28;20028;-85
2022/07/27 03:43:31;;;;;;;11.38;7.20;;;;;;;22.21;47.14;93627.34;5125070;28;20035;-85
2022/07/27 03:45:57;;;;;;;11.45;7.85;;;;;;;22.21;47.12;93627.34;5124795;28;20031;-86
2022/07/27 03:48:22;;;;;;;18.13;7.18;;;;;;;22.16;44.48;93635.88;5124694;28;20027;-86
2022/07/27 03:50:48;;;;;;;12.90;6.68;;;;;;;22.21;45.74;93632.00;5124409;28;20068;-85
2022/07/27 03:53:13;;;;;;;12.68;6.88;;;;;;;22.22;46.90;93645.16;5124364;28;20027;-85
2022/07/27 03:55:39;;;;;;;11.52;7.97;;;;;;;22.22;45.56;93649.81;5124741;28;20023;-83
2022/07/27 03:58:04;;;;;;;12.43;6.95;;;;;;;22.24;46.01;93648.28;5124921;28;20027;-84
2022/07/27 04:00:32;;;;;;;12.75;7.28;;;;;;;22.26;46.38;93639.75;5124809;28;20116;-84
2022/07/27 04:02:57;;;;;;;14.98;7.80;;;;;;;22.31;47.24;93642.09;5124479;27;20052;-84
2022/07/27 04:05:23;;;;;;;13.65;7.63;;;;;;;22.35;46.48;93648.28;5124316;28;20027;-84
2022/07/27 04:07:48;;;;;;;14.95;8.60;;;;;;;22.41;47.69;93645.94;5124516;28;20023;-84
2022/07/27 04:10:14;;;;;;;15.65;7.65;;;;;;;22.45;46.91;93635.84;5124360;28;20024;-84
2022/07/27 04:12:39;;;;;;;10.93;7.10;;;;;;;22.56;45.26;93641.22;5124561;28;20054;-83
2022/07/27 04:15:06;;;;;;;20.13;7.00;;;;;;;22.64;45.63;93643.50;5124256;28;20019;-86
2022/07/27 04:17:31;;;;;;;15.35;7.25;;;;;;;22.63;45.13;93636.53;5123862;28;20063;-86
2022/07/27 04:19:57;;;;;;;10.02;6.90;;;;;;;22.67;45.49;93652.03;5124260;28;20027;-85
2022/07/27 04:22:22;;;;;;;20.30;7.38;;;;;;;22.69;45.55;93655.13;5124165;28;20094;-86
2022/07/27 04:24:48;;;;;;;14.07;7.13;;;;;;;22.74;46.10;93652.78;5123819;28;20039;-86
2022/07/27 04:27:13;;;;;;;20.70;7.80;;;;;;;22.77;47.16;93662.84;5124126;28;20047;-85
2022/07/27 04:29:38;;;;;;;16.58;8.07;;;;;;;22.76;45.97;93650.44;5124162;28;20051;-86
2022/07/27 04:32:05;;;;;;;16.05;7.00;;;;;;;22.77;47.04;93656.63;5123950;28;20023;-86
2022/07/27 04:34:30;;;;;;;12.13;7.25;;;;;;;22.77;47.23;93657.41;5123863;28;20024;-85
2022/07/27 04:36:55;;;;;;;15.90;7.38;;;;;;;22.82;48.46;93661.69;5123937;28;20050;-82
2022/07/27 04:39:21;;;;;;;13.23;7.07;;;;;;;22.86;49.08;93662.44;5123743;28;20027;-82
2022/07/27 04:41:46;;;;;;;11.80;5.82;;;;;;;22.93;47.94;93664.34;5123832;28;20031;-84
2022/07/27 04:44:12;;;;;;;9.73;5.85;;;;;;;22.94;47.04;93663.94;5123639;28;20235;-84
2022/07/27 04:46:37;;;;;;;14.32;5.68;;;;;;;23.06;47.20;93668.19;5123796;28;20229;-81
2022/07/27 04:49:03;;;;;;;29.58;7.32;;;;;;;23.15;47.36;93673.16;5123641;28;20023;-83
2022/07/27 04:51:28;;;;;;;13.55;5.78;;;;;;;23.18;47.03;93675.88;5123432;28;20020;-83
2022/07/27 04:53:53;;;;;;;9.45;5.55;;;;;;;23.25;46.99;93669.63;5123354;28;20019;-81
2022/07/27 04:56:19;;;;;;;15.52;5.50;;;;;;;23.25;47.45;93677.78;5123874;28;20220;-83
2022/07/27 04:58:44;;;;;;;20.33;5.65;;;;;;;23.24;47.05;93673.50;5122346;28;20359;-83
2022/07/27 05:01:11;;;;;;;32.95;6.03;;;;;;;23.27;47.18;93686.31;5123562;28;20019;-84
2022/07/27 05:03:38;;;;;;;11.13;5.85;;;;;;;23.39;46.81;93674.19;5121317;28;20325;-85
2022/07/27 05:06:03;;;;;;;14.52;5.40;;;;;;;23.40;46.31;93681.94;5123346;28;20053;-82
2022/07/27 05:08:29;;;;;;;29.75;6.25;;;;;;;23.44;46.92;93688.13;5123385;28;20027;-82
2022/07/27 05:10:54;;;;;;;16.00;6.20;;;;;;;23.50;46.66;93690.44;5123289;28;20031;-85
2022/07/27 05:13:20;;;;;;;9.80;5.82;;;;;;;23.59;46.62;93696.19;5123293;28;20027;-86
2022/07/27 05:15:46;;;;;;;15.32;6.60;;;;;;;23.61;47.07;93700.06;5123127;28;20087;-84
2022/07/27 05:18:11;;;;;;;13.02;5.78;;;;;;;23.67;46.84;93694.19;5122898;28;20337;-84
2022/07/27 05:20:36;;;;;;;9.60;5.53;;;;;;;23.68;46.61;93696.50;5123513;28;20023;-85
2022/07/27 05:23:02;;;;;;;13.05;5.50;;;;;;;23.67;47.11;93700.41;5123081;28;20313;-84
2022/07/27 05:25:28;;;;;;;15.63;6.20;;;;;;;23.64;47.05;93693.03;5122772;28;20322;-82
2022/07/27 05:27:54;;;;;;;13.88;5.47;;;;;;;23.67;46.97;93694.19;5123225;28;20198;-82
2022/07/27 05:30:20;;;;;;;13.45;5.60;;;;;;;23.67;46.61;93705.06;5123178;28;20043;-83
2022/07/27 05:32:46;;;;;;;19.55;6.20;;;;;;;23.63;47.45;93702.38;5122923;28;20100;-83
2022/07/27 05:35:11;;;;;;;18.23;5.95;;;;;;;23.69;47.20;93697.28;5123382;28;20058;-83
2022/07/27 05:37:37;;;;;;;16.23;5.82;;;;;;;23.70;48.25;93696.88;5123354;28;20020;-84
2022/07/27 05:40:04;;;;;;;15.90;5.93;;;;;;;23.80;47.82;93706.16;5123098;28;20024;-84
2022/07/27 05:42:30;;;;;;;18.83;6.50;;;;;;;23.78;47.83;93701.13;5123148;28;20106;-84
2022/07/27 05:44:55;;;;;;;16.20;6.03;;;;;;;23.87;47.55;93697.94;5123110;28;20023;-85
2022/07/27 05:47:21;;;;;;;10.48;6.55;;;;;;;23.93;48.24;93692.84;5122985;28;20054;-84
2022/07/27 05:49:47;;;;;;;19.38;6.68;;;;;;;24.01;47.98;93697.03;5121787;28;20313;-84
2022/07/27 05:52:15;;;;;;;20.08;6.30;;;;;;;24.14;47.89;93698.09;5122965;28;20020;-84
2022/07/27 05:54:42;;;;;;;15.10;6.13;;;;;;;24.18;47.71;93707.00;5123101;28;20012;-83
2022/07/27 05:57:08;;;;;;;14.15;6.03;;;;;;;24.17;47.09;93710.13;5123286;28;20093;-85
2022/07/27 05:59:35;;;;;;;13.20;5.47;;;;;;;24.22;48.14;93704.22;5122931;28;20027;-82
2022/07/27 06:02:01;;;;;;;17.27;5.63;;;;;;;24.28;47.21;93713.50;5123149;28;20217;-82
2022/07/27 06:04:26;;;;;;;14.68;6.97;;;;;;;24.23;47.73;93709.28;5123025;28;20016;-82
2022/07/27 06:09:35;;;;;;;17.15;6.78;;;;;;;24.32;48.24;93711.53;5122946;28;20107;-82
2022/07/27 06:12:01;;;;;;;11.80;6.55;;;;;;;24.37;48.07;93711.09;5122922;28;20023;-81
2022/07/27 06:14:26;;;;;;;19.35;6.45;;;;;;;24.42;47.12;93713.38;5122163;28;20042;-84
2022/07/27 06:16:52;;;;;;;17.42;6.47;;;;;;;24.48;47.22;93716.41;5126481;28;20058;-80
2022/07/27 06:19:17;;;;;;;13.27;6.18;;;;;;;24.49;46.73;93709.81;5126633;28;20019;-86
2022/07/27 06:21:43;;;;;;;15.40;5.60;;;;;;;24.49;47.04;93715.25;5126195;28;20023;-87
2022/07/27 06:24:08;;;;;;;18.27;6.15;;;;;;;24.56;46.36;93712.47;5126120;28;20027;-87
2022/07/27 06:26:33;;;;;;;15.65;7.03;;;;;;;24.60;46.72;93705.03;5126212;28;20019;-85
2022/07/27 06:29:00;;;;;;;22.40;6.20;;;;;;;24.62;46.60;93702.66;5126739;28;20240;-87
2022/07/27 06:31:26;;;;;;;12.73;5.72;;;;;;;24.63;46.74;93715.13;5126678;28;20086;-85
2022/07/27 06:33:53;;;;;;;16.52;6.50;;;;;;;24.69;46.46;93707.28;5126559;28;20061;-85
2022/07/27 06:36:19;;;;;;;19.00;7.57;;;;;;;24.75;47.03;93718.50;5126429;27;20023;-84
2022/07/27 06:38:44;;;;;;;18.52;6.55;;;;;;;24.90;46.71;93719.13;5126338;28;20213;-84
2022/07/27 06:41:10;;;;;;;18.50;6.75;;;;;;;24.95;46.08;93722.19;5126485;28;20022;-85
2022/07/27 06:43:35;;;;;;;12.73;6.50;;;;;;;25.01;45.82;93725.19;5126339;27;20359;-84
2022/07/27 06:46:02;;;;;;;12.77;6.28;;;;;;;24.93;46.38;93729.97;5126127;28;20265;-86
2022/07/27 06:48:27;;;;;;;12.63;6.30;;;;;;;24.93;45.61;93729.19;5126417;28;20019;-86
2022/07/27 06:50:53;;;;;;;18.80;6.90;;;;;;;24.88;46.59;93726.94;5126149;27;20089;-86
2022/07/27 06:53:19;;;;;;;30.23;6.28;;;;;;;24.89;47.28;93726.50;5125967;28;20020;-90
2022/07/27 06:55:44;;;;;;;20.55;6.90;;;;;;;24.98;47.44;93724.06;5126129;28;20015;-89
2022/07/27 06:58:11;;;;;;;17.42;6.03;;;;;;;25.08;46.06;93721.63;5126029;28;20027;-89
2022/07/27 07:00:37;;;;;;;15.93;6.53;;;;;;;24.83;47.34;93718.03;5126116;28;20028;-88
2022/07/27 07:03:04;;;;;;;15.05;6.55;;;;;;;24.81;48.09;93714.94;5124908;28;20029;-84
2022/07/27 07:05:33;;;;;;;12.88;7.28;;;;;;;24.86;48.99;93710.97;5126378;28;20098;-91
2022/07/27 07:07:59;;;;;;;22.48;6.43;;;;;;;24.91;47.59;93710.50;5125957;28;20364;-85
2022/07/27 07:10:25;;;;;;;24.55;6.97;;;;;;;24.95;47.10;93702.28;5125849;28;20027;-89
2022/07/27 07:12:54;;;;;;;14.88;6.35;;;;;;;24.99;46.52;93703.81;5125772;28;20260;-89
2022/07/27 07:15:26;;;;;;;16.88;6.13;;;;;;;25.05;46.76;93716.97;5124666;28;20201;-89
2022/07/27 07:17:52;;;;;;;13.15;6.13;;;;;;;25.14;45.76;93709.09;5125803;28;20048;-89
2022/07/27 07:20:17;;;;;;;18.30;6.85;;;;;;;25.10;46.03;93706.41;5125833;28;20027;-88
2022/07/27 07:22:43;;;;;;;18.88;7.25;;;;;;;25.18;46.08;93710.56;5124630;28;20020;-89
2022/07/27 07:25:09;;;;;;;20.10;6.90;;;;;;;25.22;45.87;93705.13;5125733;28;20043;-89
2022/07/27 07:27:34;;;;;;;15.63;6.53;;;;;;;25.28;46.37;93702.66;5123352;28;20349;-88
2022/07/27 07:30:00;;;;;;;17.55;6.45;;;;;;;25.29;45.54;93699.53;5124455;28;20019;-90
2022/07/27 07:32:26;;;;;;;11.10;6.65;;;;;;;25.34;46.20;93701.81;5125729;28;20035;-88
2022/07/27 07:34:52;;;;;;;10.63;6.18;;;;;;;25.42;44.64;93706.00;5124209;28;20195;-85
2022/07/27 07:37:18;;;;;;;17.15;7.65;;;;;;;25.48;45.02;93698.09;5125201;28;20026;-85
2022/07/27 07:39:44;;;;;;;19.52;6.97;;;;;;;25.61;45.32;93695.59;5125249;28;20094;-88
2022/07/27 07:42:10;;;;;;;18.48;6.85;;;;;;;25.73;44.68;93699.69;5125451;28;20061;-88
2022/07/27 07:44:35;;;;;;;29.98;16.67;;;;;;;25.86;43.01;93697.16;5123582;28;20031;-86
2022/07/27 07:47:01;;;;;;;15.32;8.60;;;;;;;25.91;43.15;93693.97;5125238;28;20038;-87
2022/07/27 07:49:26;;;;;;;16.10;7.32;;;;;;;26.04;42.93;93694.94;5125211;28;20023;-86
2022/07/27 07:51:52;;;;;;;25.20;7.97;;;;;;;26.14;42.77;93702.16;5124997;28;20317;-88
2022/07/27 07:54:17;;;;;;;27.77;11.05;;;;;;;26.17;42.67;93701.31;5124348;28;20026;-90
2022/07/27 07:56:43;;;;;;;26.95;7.22;;;;;;;26.28;41.50;93697.66;5125581;28;20137;-90
2022/07/27 07:59:08;;;;;;;15.40;6.50;;;;;;;26.42;40.88;93695.44;5124892;28;20060;-86
2022/07/27 08:01:34;;;;;;;16.75;6.82;;;;;;;26.51;40.69;93696.84;5123499;28;20322;-87
2022/07/27 08:03:59;;;;;;;20.25;5.90;;;;;;;26.64;38.13;93705.22;5124691;28;20088;-88
2022/07/27 08:06:25;;;;;;;11.80;6.57;;;;;;;26.70;38.21;93696.09;5124581;28;20034;-86
2022/07/27 08:08:50;;;;;;;23.90;8.07;;;;;;;26.84;38.42;93711.44;5124633;28;20030;-87
2022/07/27 08:11:15;;;;;;;14.48;6.85;;;;;;;26.87;38.03;93707.88;5123487;28;20052;-88
2022/07/27 08:13:41;;;;;;;15.57;5.57;;;;;;;26.96;39.04;93701.84;5124637;28;20027;-88
2022/07/27 08:16:07;;;;;;;15.38;6.88;;;;;;;27.02;38.85;93706.41;5124761;28;20041;-88
2022/07/27 08:18:32;;;;;;;13.35;5.85;;;;;;;27.13;37.47;93697.97;5124459;28;20072;-85
2022/07/27 08:20:58;;;;;;;19.73;6.05;;;;;;;27.22;37.18;93702.88;5124393;28;20075;-85
2022/07/27 08:23:23;;;;;;;13.52;5.80;;;;;;;27.34;37.30;93704.97;5124237;28;20046;-87
2022/07/27 08:25:49;;;;;;;13.75;6.43;;;;;;;27.37;36.83;93700.63;5124154;28;20088;-91
2022/07/27 08:28:14;;;;;;;9.07;6.03;;;;;;;27.43;37.09;93701.66;5124309;28;20072;-88
2022/07/27 08:30:40;;;;;;;12.73;5.93;;;;;;;27.47;37.20;93709.78;5123935;28;20027;-87
2022/07/27 08:33:05;;;;;;;10.95;5.88;;;;;;;27.55;37.17;93700.22;5124007;28;20015;-86
2022/07/27 08:35:32;;;;;;;17.25;6.15;;;;;;;27.63;36.38;93698.88;5123715;28;20015;-84
2022/07/27 08:38:00;;;;;;;12.18;6.20;;;;;;;27.72;36.55;93701.00;5123520;28;20016;-84
2022/07/27 08:40:25;;;;;;;16.73;6.22;;;;;;;27.88;36.37;93705.75;5123731;28;20042;-84
2022/07/27 08:42:51;;;;;;;16.30;6.50;;;;;;;27.79;36.59;93704.34;5122312;28;20194;-83
2022/07/27 08:45:18;;;;;;;10.60;5.72;;;;;;;27.87;37.14;93699.50;5122112;28;20024;-84
2022/07/27 08:47:44;;;;;;;16.35;5.78;;;;;;;27.88;36.19;93705.75;5122028;28;20016;-84
2022/07/27 08:50:22;;;;;;;15.05;5.32;;;;;;;27.90;36.72;93682.22;5121586;28;20023;-84
2022/07/27 08:52:55;;;;;;;17.90;6.60;;;;;;;28.02;36.07;93688.97;5121991;28;20084;-84
2022/07/27 08:55:22;;;;;;;21.52;6.30;;;;;;;28.10;35.65;93679.38;5121864;28;20016;-84
2022/07/27 08:57:48;;;;;;;13.30;5.78;;;;;;;28.23;36.66;93684.16;5121898;28;20016;-84
2022/07/27 09:00:15;;;;;;;16.15;5.95;;;;;;;28.26;36.32;93683.31;5122045;28;20086;-84
2022/07/27 09:02:41;;;;;;;14.68;7.00;;;;;;;28.26;38.03;93675.09;5121676;28;20099;-83
2022/07/27 09:05:08;;;;;;;15.48;5.70;;;;;;;28.34;36.80;93682.69;5121826;28;20023;-83
2022/07/27 09:07:34;;;;;;;14.15;6.90;;;;;;;28.46;36.34;93672.97;5122449;28;20028;-83
2022/07/27 09:09:59;;;;;;;12.90;6.47;;;;;;;28.56;36.21;93674.69;5123659;28;20023;-83
2022/07/27 09:12:29;;;;;;;13.07;6.25;;;;;;;28.60;34.54;93671.84;5123558;28;20187;-83
2022/07/27 09:15:10;;;;;;;18.00;6.47;;;;;;;28.58;35.32;93666.81;5123065;28;20015;-82
2022/07/27 09:17:37;;;;;;;12.82;6.47;;;;;;;28.60;35.10;93664.41;5123233;28;20036;-83
2022/07/27 09:20:06;;;;;;;16.80;6.65;;;;;;;28.66;34.45;93672.06;5123148;28;20098;-83
2022/07/27 09:22:42;;;;;;;11.65;6.70;;;;;;;28.75;33.10;93667.50;5123257;28;20095;-83
2022/07/27 09:25:09;;;;;;;17.80;6.25;;;;;;;28.77;33.93;93664.34;5123047;28;20334;-84
2022/07/27 09:27:35;;;;;;;12.80;6.05;;;;;;;28.83;32.93;93670.06;5123148;28;20053;-83
2022/07/27 09:30:13;;;;;;;14.55;6.15;;;;;;;28.83;33.56;93675.53;5122115;28;20019;-83
2022/07/27 09:32:51;;;;;;;13.52;6.15;;;;;;;28.83;33.06;93673.56;5123182;28;20269;-83
2022/07/27 09:35:19;;;;;;;16.73;6.13;;;;;;;28.80;32.87;93669.72;5123389;28;20087;-83
2022/07/27 09:37:45;;;;;;;34.45;7.10;;;;;;;28.84;36.52;93666.09;5123432;28;20024;-83
2022/07/27 09:40:19;;;;;;;16.65;6.82;;;;;;;28.92;35.03;93664.69;5123161;28;20047;-82
2022/07/27 09:42:46;;;;;;;16.45;6.38;;;;;;;29.04;35.40;93663.19;5123039;28;20118;-82
2022/07/27 09:45:32;;;;;;;12.07;7.68;;;;;;;29.21;34.39;93659.19;5122962;28;20023;-82
2022/07/27 09:48:07;;;;;;;10.90;6.32;;;;;;;29.41;33.59;93653.47;5123235;28;20027;-82
2022/07/27 09:50:32;;;;;;;18.85;6.60;;;;;;;29.56;32.17;93662.03;5125758;28;20031;-82
2022/07/27 09:53:22;;;;;;;10.93;6.93;;;;;;;29.72;31.87;93661.94;5127603;27;20348;-82
2022/07/27 09:56:03;;;;;;;15.65;6.50;;;;;;;29.89;31.83;93661.81;5124242;28;20042;-83
2022/07/27 09:58:49;;;;;;;18.63;6.93;;;;;;;30.01;31.52;93650.03;5127078;28;20024;-82
2022/07/27 10:01:20;;;;;;;9.82;6.10;;;;;;;30.17;29.82;93649.88;5127293;28;20015;-83
2022/07/27 10:03:47;;;;;;;7.15;5.55;;;;;;;30.26;29.50;93645.66;5127076;28;20332;-82
2022/07/27 10:06:14;;;;;;;11.05;6.38;;;;;;;30.25;29.33;93641.41;5127386;28;20296;-83
2022/07/27 10:08:45;;;;;;;8.13;6.03;;;;;;;30.30;31.10;93641.63;5126955;28;20221;-80
2022/07/27 10:11:11;;;;;;;9.98;6.22;;;;;;;30.31;29.97;93645.16;5126867;28;20222;-82
2022/07/27 10:13:37;;;;;;;18.67;6.15;;;;;;;30.36;29.91;93639.06;5126898;28;20328;-82
2022/07/27 10:16:04;;;;;;;12.38;6.38;;;;;;;30.41;30.51;93635.75;5126839;28;20037;-82
2022/07/27 10:18:52;;;;;;;12.32;7.07;;;;;;;30.48;30.25;93630.00;5126708;27;20052;-81
2022/07/27 10:21:17;;;;;;;12.63;6.68;;;;;;;30.54;30.42;93641.97;5127066;28;20023;-83
2022/07/27 10:24:23;;;;;;;12.45;6.68;;;;;;;30.74;30.16;93635.38;5126554;28;20131;-82
2022/07/27 10:26:48;;;;;;;14.52;6.80;;;;;;;30.80;28.82;93628.09;5108745;27;20038;-79
2022/07/27 10:29:19;;;;;;;14.25;6.65;;;;;;;30.88;29.24;93636.88;5126806;28;20269;-80
2022/07/27 10:31:51;;;;;;;17.02;6.55;;;;;;;31.03;29.53;93634.34;5126680;28;20046;-79
2022/07/27 10:34:34;;;;;;;22.30;5.93;;;;;;;31.16;28.82;93635.03;5126448;27;20016;-80
2022/07/27 10:37:14;;;;;;;17.42;6.30;;;;;;;31.30;27.37;93628.22;5126323;28;20019;-81
2022/07/27 10:39:48;;;;;;;12.95;6.40;;;;;;;31.42;26.28;93629.34;5126505;28;20039;-77
2022/07/27 10:42:27;;;;;;;15.02;5.93;;;;;;;31.49;26.53;93626.31;5126582;27;20027;-80
2022/07/27 10:44:55;;;;;;;8.77;6.22;;;;;;;31.58;27.25;93629.88;5126144;28;20106;-81
2022/07/27 10:47:29;;;;;;;13.82;6.47;;;;;;;31.58;26.81;93623.59;5126237;28;20066;-80
2022/07/27 10:50:16;;;;;;;13.02;6.63;;;;;;;31.53;26.19;93613.94;5125954;28;20020;-80
2022/07/27 10:52:54;;;;;;;8.48;5.93;;;;;;;31.54;26.74;93609.97;5126218;28;20020;-80
2022/07/27 10:55:28;;;;;;;9.00;6.25;;;;;;;31.62;28.27;93613.22;5126139;28;20084;-81
2022/07/27 10:58:14;;;;;;;12.23;6.32;;;;;;;31.79;28.80;93613.69;5125926;28;20314;-80
2022/07/27 11:00:48;;;;;;;14.80;6.88;;;;;;;31.88;27.02;93610.22;5114382;28;20039;-79
2022/07/27 11:03:26;;;;;;;13.80;8.13;;;;;;;31.97;27.06;93607.47;5125849;28;20023;-79
2022/07/27 11:05:58;;;;;;;14.60;7.30;;;;;;;31.98;27.65;93595.22;5125872;28;20034;-78
2022/07/27 11:08:28;;;;;;;7.78;6.03;;;;;;;32.10;27.31;93597.09;5125694;28;20019;-81
2022/07/27 11:10:54;;;;;;;15.25;6.90;;;;;;;32.24;27.16;93600.47;5126026;28;20016;-77
2022/07/27 11:13:21;;;;;;;12.23;6.90;;;;;;;32.43;26.20;93595.72;5126002;28;20324;-80
2022/07/27 11:15:56;;;;;;;13.70;7.47;;;;;;;32.61;26.85;93595.72;5125753;28;20046;-80
2022/07/27 11:18:29;;;;;;;9.95;7.00;;;;;;;32.69;26.00;93596.16;5125512;28;20345;-79
2022/07/27 11:21:35;;;;;;;10.18;6.68;;;;;;;32.58;25.89;93582.84;5125740;28;20329;-80
2022/07/27 11:24:12;;;;;;;10.70;6.22;;;;;;;32.65;25.41;93582.53;5103324;28;20062;-81
2022/07/27 11:26:47;;;;;;;12.32;6.47;;;;;;;32.74;24.73;93581.75;5123394;28;20048;-81
2022/07/27 11:29:14;;;;;;;22.95;6.85;;;;;;;32.84;25.52;93580.50;5125527;28;20069;-80
2022/07/27 11:31:41;;;;;;;15.73;8.32;;;;;;;33.06;27.16;93585.06;5125449;28;20034;-81